createdAt,value
2022-11-19T00:01:20.703Z,2.83
2022-11-19T00:03:52.366Z,3.15
2022-11-19T00:06:26.152Z,2.50
2022-11-19T00:08:53.990Z,3.15
2022-11-19T00:11:46.621Z,2.78
2022-11-19T00:14:15.390Z,3.22
2022-11-19T00:16:44.032Z,2.47
2022-11-19T00:19:11.882Z,2.95
2022-11-19T00:21:38.785Z,2.83
2022-11-19T00:24:06.370Z,2.38
2022-11-19T00:26:33.626Z,2.53
2022-11-19T00:29:01.234Z,2.33
2022-11-19T00:31:28.228Z,3.38
2022-11-19T00:33:55.262Z,2.78
2022-11-19T00:36:23.555Z,2.53
2022-11-19T00:38:50.901Z,3.92
2022-11-19T00:41:18.283Z,2.70
2022-11-19T00:43:48.254Z,3.10
2022-11-19T00:46:24.095Z,2.95
2022-11-19T00:48:52.738Z,2.38
2022-11-19T00:51:21.787Z,2.80
2022-11-19T00:53:48.860Z,2.75
2022-11-19T00:56:18.629Z,2.85
2022-11-19T00:58:46.443Z,3.22
2022-11-19T01:01:14.980Z,3.05
2022-11-19T01:03:42.706Z,2.83
2022-11-19T01:06:10.168Z,2.90
2022-11-19T01:08:37.555Z,2.53
2022-11-19T01:11:13.459Z,3.17
2022-11-19T01:13:40.836Z,2.60
2022-11-19T01:16:11.447Z,2.42
2022-11-19T01:18:39.609Z,2.70
2022-11-19T01:21:08.530Z,2.30
2022-11-19T01:23:35.583Z,2.45
2022-11-19T01:26:02.841Z,3.15
2022-11-19T01:28:30.165Z,2.40
2022-11-19T01:30:57.549Z,2.70
2022-11-19T01:33:24.449Z,2.70
2022-11-19T01:35:55.950Z,2.88
2022-11-19T01:38:22.991Z,2.75
2022-11-19T01:40:49.958Z,3.13
2022-11-19T01:43:16.891Z,3.13
2022-11-19T01:45:49.522Z,2.88
2022-11-19T01:48:16.348Z,3.05
2022-11-19T01:50:59.254Z,2.33
2022-11-19T01:53:31.430Z,2.55
2022-11-19T01:56:04.172Z,2.33
2022-11-19T01:58:36.446Z,2.70
2022-11-19T02:01:03.602Z,2.45
2022-11-19T02:03:32.350Z,3.22
2022-11-19T02:06:01.723Z,2.05
2022-11-19T02:08:43.673Z,2.63
2022-11-19T02:11:10.455Z,1.98
2022-11-19T02:13:43.708Z,2.03
2022-11-19T02:16:43.710Z,3.13
2022-11-19T02:19:26.001Z,2.05
2022-11-19T02:22:18.314Z,1.95
2022-11-19T02:24:54.401Z,2.33
2022-11-19T02:27:51.341Z,2.38
2022-11-19T02:30:19.885Z,2.17
2022-11-19T02:32:53.414Z,1.83
2022-11-19T02:35:45.127Z,1.90
2022-11-19T02:38:54.509Z,2.03
2022-11-19T02:41:37.961Z,1.88
2022-11-19T02:44:38.747Z,2.20
2022-11-19T02:47:12.336Z,1.98
2022-11-19T02:49:44.738Z,1.95
2022-11-19T02:52:13.934Z,2.05
2022-11-19T02:54:40.912Z,1.40
2022-11-19T02:57:11.896Z,1.70
2022-11-19T03:00:02.790Z,1.85
2022-11-19T03:03:20.652Z,1.55
2022-11-19T03:05:52.355Z,1.63
2022-11-19T03:08:19.809Z,1.10
2022-11-19T03:11:00.360Z,1.23
2022-11-19T03:14:19.635Z,1.25
2022-11-19T03:16:57.880Z,0.80
2022-11-19T03:19:36.625Z,0.70
2022-11-19T03:22:18.659Z,0.88
2022-11-19T03:25:14.035Z,1.30
2022-11-19T03:27:54.335Z,0.75
2022-11-19T03:30:21.540Z,0.90
2022-11-19T03:32:58.165Z,0.85
2022-11-19T03:38:05.972Z,0.80
2022-11-19T03:40:34.820Z,0.75
2022-11-19T03:43:06.028Z,0.60
2022-11-19T03:45:39.608Z,1.00
2022-11-19T03:48:07.773Z,0.70
2022-11-19T03:50:50.284Z,0.98
2022-11-19T03:53:18.334Z,0.98
2022-11-19T03:55:51.727Z,0.73
2022-11-19T03:58:19.307Z,0.80
2022-11-19T04:00:46.271Z,0.85
2022-11-19T04:03:13.149Z,0.90
2022-11-19T04:05:40.250Z,0.85
2022-11-19T04:08:07.087Z,0.93
2022-11-19T04:10:33.983Z,1.10
2022-11-19T04:13:00.866Z,0.93
2022-11-19T04:15:27.716Z,0.60
2022-11-19T04:17:54.777Z,0.77
2022-11-19T04:20:21.738Z,0.75
2022-11-19T04:22:51.771Z,0.70
2022-11-19T04:25:19.231Z,0.70
2022-11-19T04:27:47.163Z,0.60
2022-11-19T04:30:15.125Z,0.80
2022-11-19T04:32:42.998Z,0.80
2022-11-19T04:35:10.701Z,0.80
2022-11-19T04:37:37.694Z,0.70
2022-11-19T04:40:05.006Z,0.75
2022-11-19T04:42:32.016Z,0.77
2022-11-19T04:44:59.000Z,0.90
2022-11-19T04:47:25.859Z,1.10
2022-11-19T04:49:52.703Z,0.90
2022-11-19T04:52:19.718Z,0.80
2022-11-19T04:54:46.703Z,0.75
2022-11-19T04:57:13.616Z,0.85
2022-11-19T04:59:40.589Z,0.90
2022-11-19T05:02:07.495Z,0.70
2022-11-19T05:04:34.396Z,0.88
2022-11-19T05:07:01.335Z,0.88
2022-11-19T05:09:28.301Z,1.00
2022-11-19T05:11:55.155Z,1.13
2022-11-19T05:14:23.766Z,0.90
2022-11-19T05:16:54.451Z,1.20
2022-11-19T05:19:21.771Z,0.70
2022-11-19T05:21:49.009Z,1.67
2022-11-19T05:24:15.898Z,1.00
2022-11-19T05:26:42.815Z,0.93
2022-11-19T05:29:09.712Z,0.75
2022-11-19T05:31:36.592Z,0.90
2022-11-19T05:34:03.449Z,0.98
2022-11-19T05:36:30.297Z,0.77
2022-11-19T05:38:57.215Z,1.00
2022-11-19T05:41:24.199Z,1.23
2022-11-19T05:43:51.086Z,1.00
2022-11-19T05:46:17.940Z,1.05
2022-11-19T05:48:44.869Z,1.17
2022-11-19T05:51:15.614Z,1.35
2022-11-19T05:53:43.510Z,1.15
2022-11-19T05:56:10.531Z,1.40
2022-11-19T05:58:37.412Z,1.27
2022-11-19T06:01:04.884Z,1.35
2022-11-19T06:03:32.729Z,1.80
2022-11-19T06:05:59.645Z,1.38
2022-11-19T06:08:26.577Z,1.73
2022-11-19T06:10:53.525Z,2.20
2022-11-19T06:13:20.624Z,2.20
2022-11-19T06:15:47.508Z,1.83
2022-11-19T06:18:14.444Z,1.83
2022-11-19T06:20:41.385Z,1.40
2022-11-19T06:23:08.246Z,2.05
2022-11-19T06:25:35.159Z,2.63
2022-11-19T06:28:02.062Z,2.20
2022-11-19T06:30:28.996Z,2.30
2022-11-19T06:32:55.924Z,1.60
2022-11-19T06:35:22.807Z,1.90
2022-11-19T06:37:49.712Z,2.15
2022-11-19T06:40:16.666Z,2.25
2022-11-19T06:42:45.235Z,1.80
2022-11-19T06:45:15.423Z,1.75
2022-11-19T06:47:43.087Z,1.70
2022-11-19T06:50:10.909Z,1.80
2022-11-19T06:52:38.312Z,1.70
2022-11-19T06:55:05.634Z,2.20
2022-11-19T06:57:32.618Z,1.90
2022-11-19T06:59:59.482Z,2.00
2022-11-19T07:02:26.527Z,1.83
2022-11-19T07:04:53.429Z,2.10
2022-11-19T07:07:21.314Z,1.70
2022-11-19T07:09:48.206Z,1.67
2022-11-19T07:12:15.121Z,1.90
2022-11-19T07:14:42.210Z,1.85
2022-11-19T07:17:09.071Z,1.83
2022-11-19T07:19:35.956Z,1.80
2022-11-19T07:22:02.835Z,1.70
2022-11-19T07:24:29.674Z,1.70
2022-11-19T07:26:56.729Z,1.48
2022-11-19T07:29:23.938Z,1.75
2022-11-19T07:31:53.348Z,1.80
2022-11-19T07:34:21.316Z,2.17
2022-11-19T07:36:48.621Z,1.63
2022-11-19T07:39:15.959Z,1.45
2022-11-19T07:42:01.313Z,1.23
2022-11-19T07:44:28.354Z,1.05
2022-11-19T07:46:55.336Z,1.50
2022-11-19T07:49:22.668Z,1.15
2022-11-19T07:51:49.746Z,1.23
2022-11-19T07:54:16.809Z,1.35
2022-11-19T07:56:44.065Z,1.27
2022-11-19T07:59:11.368Z,1.27
2022-11-19T08:01:39.013Z,1.20
2022-11-19T08:04:05.975Z,1.48
2022-11-19T08:06:36.110Z,1.67
2022-11-19T08:09:04.535Z,1.52
2022-11-19T08:11:31.760Z,1.55
2022-11-19T08:14:01.380Z,1.40
2022-11-19T08:16:47.241Z,1.35
2022-11-19T08:19:17.613Z,1.20
2022-11-19T08:21:47.147Z,1.75
2022-11-19T08:24:15.694Z,1.40
2022-11-19T08:26:43.140Z,1.50
2022-11-19T08:29:16.048Z,1.27
2022-11-19T08:31:45.608Z,1.25
2022-11-19T08:34:12.612Z,1.58
2022-11-19T08:36:39.894Z,1.52
2022-11-19T08:39:06.968Z,1.25
2022-11-19T08:41:52.859Z,1.10
2022-11-19T08:44:20.308Z,1.50
2022-11-19T08:46:47.383Z,1.50
2022-11-19T08:49:14.393Z,1.60
2022-11-19T08:51:41.377Z,1.70
2022-11-19T08:54:08.949Z,1.05
2022-11-19T08:56:35.867Z,1.60
2022-11-19T08:59:03.542Z,1.50
2022-11-19T09:01:31.092Z,1.30
2022-11-19T09:03:58.424Z,1.30
2022-11-19T09:06:25.276Z,1.30
2022-11-19T09:08:52.422Z,1.17
2022-11-19T09:11:21.876Z,1.30
2022-11-19T09:13:48.987Z,1.30
2022-11-19T09:16:16.673Z,1.67
2022-11-19T09:18:43.952Z,1.75
2022-11-19T09:21:12.364Z,1.33
2022-11-19T09:23:41.550Z,1.40
2022-11-19T09:26:12.797Z,1.30
2022-11-19T09:28:40.204Z,1.55
2022-11-19T09:31:10.178Z,1.52
2022-11-19T09:33:39.438Z,1.38
2022-11-19T09:36:06.599Z,1.30
2022-11-19T09:38:35.294Z,1.33
2022-11-19T09:41:17.552Z,1.45
2022-11-19T09:43:58.949Z,1.50
2022-11-19T10:18:11.828Z,1.90
2022-11-19T10:21:01.896Z,1.60
2022-11-19T10:23:38.180Z,1.50
2022-11-19T10:26:11.220Z,1.65
2022-11-19T10:28:41.185Z,1.80
2022-11-19T10:31:16.315Z,1.63
2022-11-19T10:33:51.907Z,1.60
2022-11-19T10:36:34.465Z,1.97
2022-11-19T10:39:07.898Z,1.50
2022-11-19T10:41:37.768Z,1.60
2022-11-19T10:44:40.171Z,1.52
2022-11-19T10:47:34.729Z,1.70
2022-11-19T10:50:05.624Z,2.25
2022-11-19T10:52:41.302Z,1.70
2022-11-19T10:55:28.655Z,2.38
2022-11-19T10:58:17.900Z,1.80
2022-11-19T11:00:45.112Z,2.13
2022-11-19T11:03:26.516Z,2.78
2022-11-19T11:05:56.977Z,2.60
2022-11-19T11:08:24.258Z,2.10
2022-11-19T11:10:52.396Z,2.42
2022-11-19T11:13:52.805Z,2.45
2022-11-19T11:16:26.983Z,2.53
2022-11-19T11:18:57.003Z,2.60
2022-11-19T11:21:39.745Z,2.22
2022-11-19T11:24:07.854Z,2.15
2022-11-19T11:26:36.839Z,2.65
2022-11-19T11:29:26.254Z,2.67
2022-11-19T11:31:54.041Z,3.03
2022-11-19T11:34:30.079Z,3.58
2022-11-19T11:36:59.079Z,3.00
2022-11-19T11:39:30.289Z,2.83
2022-11-19T11:42:05.791Z,2.30
2022-11-19T11:44:37.389Z,2.10
2022-11-19T11:47:13.274Z,1.80
2022-11-19T11:49:46.312Z,1.80
2022-11-19T11:52:22.617Z,1.88
2022-11-19T11:55:06.202Z,1.90
2022-11-19T11:57:50.256Z,1.63
2022-11-19T12:00:43.064Z,1.75
2022-11-19T12:03:10.237Z,1.58
2022-11-19T12:05:55.521Z,1.70
2022-11-19T12:08:47.659Z,1.70
2022-11-19T12:11:14.491Z,1.75
2022-11-19T12:13:59.171Z,2.05
2022-11-19T12:16:49.215Z,1.85
2022-11-19T12:19:42.568Z,1.50
2022-11-19T12:22:33.511Z,1.42
2022-11-19T12:25:42.065Z,1.50
2022-11-19T12:28:27.020Z,1.50
2022-11-19T12:31:16.433Z,1.42
2022-11-19T12:34:05.487Z,1.50
2022-11-19T12:36:32.289Z,1.50
2022-11-19T12:39:34.146Z,1.50
2022-11-19T12:42:15.864Z,1.35
2022-11-19T12:44:48.917Z,1.65
2022-11-19T12:47:33.432Z,1.45
2022-11-19T12:50:00.361Z,1.98
2022-11-19T12:52:38.920Z,1.52
2022-11-19T12:55:21.894Z,1.92
2022-11-19T12:58:04.861Z,1.85
2022-11-19T13:00:40.831Z,1.50
2022-11-19T13:05:54.644Z,1.63
2022-11-19T13:08:30.299Z,1.90
2022-11-19T13:11:06.008Z,2.20
2022-11-19T13:13:37.748Z,1.60
2022-11-19T13:16:10.730Z,2.45
2022-11-19T13:18:42.255Z,1.73
2022-11-19T13:22:04.377Z,1.50
2022-11-19T13:24:35.223Z,2.00
2022-11-19T13:27:05.655Z,1.38
2022-11-19T13:29:44.241Z,1.90
2022-11-19T13:32:31.472Z,1.75
2022-11-19T13:35:16.617Z,1.70
2022-11-19T13:37:58.554Z,1.50
2022-11-19T13:40:34.061Z,1.60
2022-11-19T13:43:35.689Z,1.40
2022-11-19T13:46:11.399Z,2.22
2022-11-19T13:48:46.009Z,1.63
2022-11-19T13:51:25.148Z,1.23
2022-11-19T13:54:01.205Z,1.50
2022-11-19T13:56:48.781Z,1.98
2022-11-19T13:59:27.975Z,1.50
2022-11-19T14:02:16.135Z,1.60
2022-11-19T14:04:53.554Z,1.30
2022-11-19T14:07:45.229Z,1.58
2022-11-19T14:10:32.165Z,1.60
2022-11-19T14:13:36.395Z,1.70
2022-11-19T14:16:49.853Z,1.85
2022-11-19T14:19:56.489Z,1.60
2022-11-19T14:22:58.498Z,2.28
2022-11-19T14:26:01.977Z,3.30
2022-11-19T14:28:50.909Z,2.78
2022-11-19T14:31:20.304Z,3.08
2022-11-19T14:33:47.164Z,3.00
2022-11-19T14:36:41.162Z,3.28
2022-11-19T14:39:23.804Z,4.47
2022-11-19T14:42:17.920Z,3.25
2022-11-19T14:45:07.179Z,2.65
2022-11-19T14:47:42.538Z,3.05
2022-11-19T14:50:22.339Z,3.13
2022-11-19T14:53:03.047Z,3.00
2022-11-19T14:55:31.472Z,3.17
2022-11-19T14:58:05.138Z,2.50
2022-11-19T15:00:31.988Z,2.97
2022-11-19T15:03:01.129Z,2.30
2022-11-19T15:05:41.105Z,2.35
2022-11-19T15:08:16.959Z,2.85
2022-11-19T15:11:04.915Z,2.47
2022-11-19T15:13:37.703Z,2.90
2022-11-19T15:16:09.611Z,2.72
2022-11-19T15:18:45.496Z,2.78
2022-11-19T15:21:40.326Z,3.20
2022-11-19T15:24:35.138Z,2.80
2022-11-19T15:27:08.106Z,2.50
2022-11-19T15:30:22.508Z,2.72
2022-11-19T15:33:16.844Z,2.30
2022-11-19T15:36:01.614Z,2.30
2022-11-19T15:38:37.211Z,2.47
2022-11-19T15:41:05.294Z,2.40
2022-11-19T15:43:43.667Z,2.45
2022-11-19T15:46:20.309Z,2.22
2022-11-19T15:51:26.234Z,2.45
2022-11-19T15:54:07.147Z,2.20
2022-11-19T15:56:47.243Z,2.28
2022-11-19T15:59:18.052Z,1.73
2022-11-19T16:01:56.251Z,2.85
2022-11-19T16:04:23.319Z,2.53
2022-11-19T16:06:51.975Z,2.25
2022-11-19T16:09:25.179Z,2.22
2022-11-19T16:12:11.790Z,2.28
2022-11-19T16:14:57.600Z,1.75
2022-11-19T16:17:34.860Z,1.73
2022-11-19T16:20:21.177Z,2.10
2022-11-19T16:23:06.874Z,2.60
2022-11-19T16:25:33.944Z,2.22
2022-11-19T16:28:06.099Z,2.40
2022-11-19T16:31:05.130Z,2.13
2022-11-19T16:33:34.344Z,2.42
2022-11-19T16:36:11.559Z,2.92
2022-11-19T16:38:40.946Z,3.40
2022-11-19T16:41:29.067Z,4.85
2022-11-19T16:43:56.776Z,4.60
2022-11-19T16:46:28.934Z,4.18
2022-11-19T16:49:00.248Z,4.47
2022-11-19T16:51:55.363Z,4.68
2022-11-19T16:54:58.000Z,4.97
2022-11-19T16:57:26.828Z,5.32
2022-11-19T16:59:58.494Z,4.00
2022-11-19T17:02:38.095Z,3.78
2022-11-19T17:05:10.333Z,3.70
2022-11-19T17:07:37.464Z,3.92
2022-11-19T17:10:13.578Z,3.97
2022-11-19T17:12:50.830Z,3.28
2022-11-19T17:15:39.395Z,3.50
2022-11-19T17:18:29.497Z,3.80
2022-11-19T17:21:03.307Z,3.97
2022-11-19T17:23:32.988Z,3.22
2022-11-19T17:26:03.651Z,3.22
2022-11-19T17:28:40.919Z,3.38
2022-11-19T17:31:17.080Z,3.38
2022-11-19T17:34:12.832Z,3.17
2022-11-19T17:36:40.054Z,3.35
2022-11-19T17:39:11.072Z,3.25
2022-11-19T17:41:57.985Z,3.10
2022-11-19T17:44:39.273Z,3.08
2022-11-19T17:47:21.053Z,2.83
2022-11-19T17:49:49.147Z,3.17
2022-11-19T17:52:26.556Z,2.97
2022-11-19T17:54:57.104Z,2.92
2022-11-19T17:57:24.557Z,3.72
2022-11-19T17:59:52.005Z,3.20
2022-11-19T18:02:21.376Z,3.55
2022-11-19T18:04:49.375Z,3.72
2022-11-19T18:07:16.571Z,3.05
2022-11-19T18:09:43.579Z,3.08
2022-11-19T18:12:17.392Z,2.70
2022-11-19T18:14:44.794Z,2.80
2022-11-19T18:17:13.170Z,3.92
2022-11-19T18:19:40.669Z,3.28
2022-11-19T18:22:17.521Z,2.72
2022-11-19T18:24:49.547Z,2.50
2022-11-19T18:27:17.728Z,2.75
2022-11-19T18:29:44.679Z,2.80
2022-11-19T18:32:15.356Z,3.03
2022-11-19T18:34:43.294Z,2.95
2022-11-19T18:37:10.361Z,3.08
2022-11-19T18:39:37.448Z,2.90
2022-11-19T18:42:04.831Z,2.72
2022-11-19T18:44:34.484Z,2.35
2022-11-19T18:47:07.972Z,2.10
2022-11-19T18:49:35.274Z,2.15
2022-11-19T18:52:07.043Z,2.20
2022-11-19T18:54:34.658Z,1.92
2022-11-19T18:57:01.804Z,2.10
2022-11-19T18:59:30.105Z,2.42
2022-11-19T19:01:57.623Z,2.50
2022-11-19T19:04:24.644Z,2.90
2022-11-19T19:06:51.913Z,2.38
2022-11-19T19:09:20.507Z,2.50
2022-11-19T19:12:12.555Z,2.15
2022-11-19T19:14:40.158Z,1.60
2022-11-19T19:17:07.218Z,2.13
2022-11-19T19:19:34.274Z,2.40
2022-11-19T19:22:01.675Z,2.03
2022-11-19T19:24:29.290Z,2.08
2022-11-19T19:26:56.192Z,2.22
2022-11-19T19:29:23.314Z,1.85
2022-11-19T19:31:50.551Z,1.90
2022-11-19T19:34:17.797Z,2.10
2022-11-19T19:36:50.170Z,2.10
2022-11-19T19:39:19.794Z,2.05
2022-11-19T19:41:49.535Z,2.25
2022-11-19T19:44:16.769Z,2.60
2022-11-19T19:46:43.883Z,2.00
2022-11-19T19:49:11.190Z,2.60
2022-11-19T19:51:38.121Z,1.90
2022-11-19T19:54:05.784Z,2.20
2022-11-19T19:56:33.587Z,2.25
2022-11-19T19:59:01.651Z,2.22
2022-11-19T20:01:31.482Z,2.30
2022-11-19T20:04:09.488Z,2.33
2022-11-19T20:06:41.607Z,2.45
2022-11-19T20:09:09.337Z,2.80
2022-11-19T20:11:37.166Z,1.98
2022-11-19T20:14:04.167Z,2.38
2022-11-19T20:16:32.209Z,2.15
2022-11-19T20:19:00.493Z,2.30
2022-11-19T20:21:31.769Z,2.38
2022-11-19T20:23:59.166Z,2.50
2022-11-19T20:26:28.827Z,2.47
2022-11-19T20:28:57.443Z,2.78
2022-11-19T20:31:24.968Z,2.03
2022-11-19T20:33:59.837Z,2.80
2022-11-19T20:36:28.864Z,2.38
2022-11-19T20:38:57.669Z,2.20
2022-11-19T20:41:43.994Z,2.47
2022-11-19T20:44:22.378Z,2.95
2022-11-19T20:47:00.951Z,3.13
2022-11-19T20:49:30.138Z,2.50
2022-11-19T20:51:57.412Z,2.63
2022-11-19T20:54:25.496Z,2.70
2022-11-19T20:56:53.689Z,2.70
2022-11-19T20:59:21.710Z,2.90
2022-11-19T21:01:50.189Z,2.70
2022-11-19T21:04:17.834Z,2.90
2022-11-19T21:06:44.976Z,3.40
2022-11-19T21:09:11.944Z,3.03
2022-11-19T21:11:38.976Z,2.85
2022-11-19T21:14:06.639Z,3.58
2022-11-19T21:16:33.793Z,3.72
2022-11-19T21:19:01.153Z,2.95
2022-11-19T21:21:28.220Z,3.38
2022-11-19T21:23:55.513Z,3.00
2022-11-19T21:26:27.526Z,4.10
2022-11-19T21:28:56.695Z,2.40
2022-11-19T21:31:48.771Z,3.13
2022-11-19T21:34:18.032Z,3.50
2022-11-19T21:36:46.617Z,3.50
2022-11-19T21:39:16.456Z,4.13
2022-11-19T21:41:44.061Z,3.38
2022-11-19T21:44:11.017Z,3.15
2022-11-19T21:46:38.113Z,2.80
2022-11-19T21:49:05.460Z,2.53
2022-11-19T21:51:32.404Z,3.00
2022-11-19T21:53:59.915Z,3.15
2022-11-19T21:56:32.326Z,2.95
2022-11-19T21:59:02.537Z,3.10
2022-11-19T22:01:29.430Z,3.10
2022-11-19T22:03:56.419Z,3.05
2022-11-19T22:06:23.488Z,2.63
2022-11-19T22:08:50.507Z,2.60
2022-11-19T22:11:29.359Z,2.88
2022-11-19T22:14:04.868Z,3.42
2022-11-19T22:16:34.587Z,3.70
2022-11-19T22:19:01.775Z,2.55
2022-11-19T22:21:29.475Z,3.17
2022-11-19T22:23:56.982Z,2.60
2022-11-19T22:26:24.433Z,3.10
2022-11-19T22:28:51.351Z,3.20
2022-11-19T22:31:18.252Z,2.92
2022-11-19T22:33:45.226Z,3.00
2022-11-19T22:36:12.196Z,4.88
2022-11-19T22:38:39.317Z,3.05
2022-11-19T22:41:09.008Z,2.45
2022-11-19T22:43:36.838Z,2.50
2022-11-19T22:46:04.500Z,2.65
2022-11-19T22:48:32.793Z,2.67
2022-11-19T22:50:59.930Z,3.17
2022-11-19T22:53:26.925Z,2.38
2022-11-19T22:55:53.769Z,3.35
2022-11-19T22:58:20.690Z,2.78
2022-11-19T23:00:49.522Z,3.17
2022-11-19T23:03:18.161Z,3.17
2022-11-19T23:05:52.358Z,2.50
2022-11-19T23:08:19.834Z,3.40
2022-11-19T23:10:47.314Z,3.55
2022-11-19T23:13:32.157Z,3.67
2022-11-19T23:16:03.515Z,3.10
2022-11-19T23:18:33.294Z,2.83
2022-11-19T23:21:05.005Z,3.70
2022-11-19T23:23:31.916Z,3.08
2022-11-19T23:26:01.229Z,3.08
2022-11-19T23:28:29.859Z,2.80
2022-11-19T23:30:56.886Z,2.85
2022-11-19T23:33:24.131Z,3.53
2022-11-19T23:35:51.097Z,3.38
2022-11-19T23:38:18.038Z,3.20
2022-11-19T23:40:45.006Z,3.47
2022-11-19T23:43:11.911Z,3.53
2022-11-19T23:45:38.811Z,3.05
2022-11-19T23:48:05.917Z,3.50
2022-11-19T23:50:33.017Z,2.92
2022-11-19T23:52:59.939Z,2.78
2022-11-19T23:55:26.838Z,2.50
2022-11-19T23:57:53.825Z,1.83
